Time;durP1;ratioP1;P1;durP2;ratioP2;P2;SDS_P1;SDS_P2;PMS_P1;PMS_P2;Temp;Humidity;BMP_temperature;BMP_pressure;BME280_temperature;BME280_humidity;BME280_pressure;Samples;Min_cycle;Max_cycle;Signal;HPM_P1;HPM_P2
2023/11/13 00:01:36;;;;;;;3.58;2.15;;;;;;;;;;5016570;28;20022;-68
2023/11/13 00:04:01;;;;;;;2.92;2.10;;;;;;;;;;5017099;28;20387;-68
2023/11/13 00:06:26;;;;;;;5.30;2.85;;;;;;;;;;5017009;28;20506;-68
2023/11/13 00:08:52;;;;;;;3.42;2.20;;;;;;;;;;5016807;28;20028;-68
2023/11/13 00:11:18;;;;;;;3.28;2.42;;;;;;;;;;5016923;28;20033;-68
2023/11/13 00:13:44;;;;;;;2.55;1.90;;;;;;;;;;5016567;28;20394;-68
2023/11/13 00:16:09;;;;;;;3.75;2.35;;;;;;;;;;5016897;28;20172;-68
2023/11/13 00:18:34;;;;;;;2.15;1.83;;;;;;;;;;5016702;28;20109;-66
2023/11/13 00:21:00;;;;;;;3.88;1.95;;;;;;;;;;5016459;28;20038;-66
2023/11/13 00:23:27;;;;;;;3.15;1.70;;;;;;;;;;5016550;28;20553;-66
2023/11/13 00:25:52;;;;;;;3.55;1.75;;;;;;;;;;5016561;28;20510;-66
2023/11/13 00:28:17;;;;;;;3.65;1.80;;;;;;;;;;5016696;28;20037;-66
2023/11/13 00:30:43;;;;;;;3.30;2.60;;;;;;;;;;5015911;28;20080;-66
2023/11/13 00:33:08;;;;;;;5.05;3.10;;;;;;;;;;5016808;28;20497;-66
2023/11/13 00:35:33;;;;;;;3.33;1.92;;;;;;;;;;5016355;28;20029;-66
2023/11/13 00:37:59;;;;;;;2.88;1.92;;;;;;;;;;5016305;28;20022;-66
2023/11/13 00:40:24;;;;;;;3.88;2.35;;;;;;;;;;5016398;28;20025;-66
2023/11/13 00:42:50;;;;;;;5.07;3.00;;;;;;;;;;5015835;28;20026;-66
2023/11/13 00:45:16;;;;;;;2.58;1.70;;;;;;;;;;5016305;28;20022;-66
2023/11/13 00:47:41;;;;;;;5.82;2.38;;;;;;;;;;5016365;28;20025;-66
2023/11/13 00:50:06;;;;;;;3.65;2.63;;;;;;;;;;5015928;28;20022;-66
2023/11/13 00:52:32;;;;;;;3.60;2.22;;;;;;;;;;5016200;28;20391;-66
2023/11/13 00:54:57;;;;;;;4.90;3.15;;;;;;;;;;5016095;28;20383;-66
2023/11/13 00:57:22;;;;;;;3.65;2.60;;;;;;;;;;5015539;28;20053;-66
2023/11/13 00:59:48;;;;;;;3.35;2.55;;;;;;;;;;5016336;28;20029;-66
2023/11/13 01:02:13;;;;;;;3.35;2.35;;;;;;;;;;5016088;28;20026;-66
2023/11/13 01:04:39;;;;;;;5.30;2.78;;;;;;;;;;5016022;28;20030;-66
2023/11/13 01:07:04;;;;;;;8.57;3.67;;;;;;;;;;5015494;28;20033;-66
2023/11/13 01:09:29;;;;;;;4.03;2.70;;;;;;;;;;5015879;28;20029;-66
2023/11/13 01:11:55;;;;;;;3.60;2.63;;;;;;;;;;5015701;28;20029;-66
2023/11/13 01:14:20;;;;;;;3.75;2.72;;;;;;;;;;5015521;28;20406;-66
2023/11/13 01:16:45;;;;;;;4.10;2.40;;;;;;;;;;5015827;28;20041;-66
2023/11/13 01:19:11;;;;;;;3.13;2.42;;;;;;;;;;5015355;28;20030;-66
2023/11/13 01:21:36;;;;;;;4.45;2.97;;;;;;;;;;5016110;28;20026;-66
2023/11/13 01:24:02;;;;;;;3.33;2.53;;;;;;;;;;5015413;28;20051;-66
2023/11/13 01:26:27;;;;;;;4.60;3.10;;;;;;;;;;5015798;28;20507;-66
2023/11/13 01:28:53;;;;;;;9.68;2.65;;;;;;;;;;5015716;28;20442;-66
2023/11/13 01:31:18;;;;;;;3.63;2.47;;;;;;;;;;5014719;28;20030;-66
2023/11/13 01:33:43;;;;;;;4.32;2.40;;;;;;;;;;5015605;28;20034;-66
2023/11/13 01:36:09;;;;;;;3.50;2.35;;;;;;;;;;5015313;28;20113;-66
2023/11/13 01:38:34;;;;;;;4.78;3.35;;;;;;;;;;5014821;28;20030;-66
2023/11/13 01:40:59;;;;;;;5.53;3.13;;;;;;;;;;5015427;28;20029;-66
2023/11/13 01:43:25;;;;;;;3.15;2.28;;;;;;;;;;5015500;28;20026;-66
2023/11/13 01:45:55;;;;;;;5.43;2.78;;;;;;;;;;5015114;28;20048;-66
2023/11/13 01:48:21;;;;;;;5.93;2.92;;;;;;;;;;5013400;28;20053;-66
2023/11/13 01:50:47;;;;;;;4.95;3.05;;;;;;;;;;5014221;28;20468;-66
2023/11/13 01:53:14;;;;;;;5.13;3.33;;;;;;;;;;5013897;28;20030;-66
2023/11/13 01:55:40;;;;;;;4.90;2.80;;;;;;;;;;4996790;28;20026;-66
2023/11/13 01:58:05;;;;;;;3.95;2.45;;;;;;;;;;5013782;28;20034;-66
2023/11/13 02:00:32;;;;;;;3.83;2.22;;;;;;;;;;5014946;28;20022;-66
2023/11/13 02:03:31;;;;;;;3.63;2.55;;;;;;;;;;5013282;28;20022;-66
2023/11/13 02:05:57;;;;;;;3.42;3.08;;;;;;;;;;5013497;28;20048;-66
2023/11/13 02:08:22;;;;;;;3.75;2.22;;;;;;;;;;5014133;28;20444;-66
2023/11/13 02:10:48;;;;;;;4.80;2.58;;;;;;;;;;5014993;28;20030;-66
2023/11/13 02:13:13;;;;;;;4.95;3.13;;;;;;;;;;5014846;28;20057;-66
2023/11/13 02:15:40;;;;;;;5.97;2.67;;;;;;;;;;5013397;28;20073;-66
2023/11/13 02:18:06;;;;;;;5.47;3.00;;;;;;;;;;5014286;28;20050;-66
2023/11/13 02:20:32;;;;;;;5.05;2.80;;;;;;;;;;5013529;28;20076;-66
2023/11/13 02:22:59;;;;;;;4.97;2.83;;;;;;;;;;5014567;28;20026;-66
2023/11/13 02:25:25;;;;;;;6.85;3.33;;;;;;;;;;5015270;28;20050;-66
2023/11/13 02:27:55;;;;;;;5.78;3.35;;;;;;;;;;5014845;28;20026;-66
2023/11/13 02:30:21;;;;;;;5.20;3.35;;;;;;;;;;5014181;28;20026;-66
2023/11/13 02:32:49;;;;;;;5.78;3.38;;;;;;;;;;5013262;28;20076;-66
2023/11/13 02:35:15;;;;;;;4.80;3.15;;;;;;;;;;5016312;28;20030;-66
2023/11/13 02:37:41;;;;;;;5.38;2.70;;;;;;;;;;5033036;28;20021;-66
2023/11/13 02:40:11;;;;;;;4.65;2.65;;;;;;;;;;5031164;28;20036;-66
2023/11/13 02:42:37;;;;;;;5.50;2.63;;;;;;;;;;5033725;28;20029;-68
2023/11/13 02:45:04;;;;;;;4.72;2.60;;;;;;;;;;5032296;28;20032;-68
2023/11/13 02:47:29;;;;;;;4.60;2.70;;;;;;;;;;5033358;28;20498;-68
2023/11/13 02:49:55;;;;;;;4.68;3.00;;;;;;;;;;5032429;28;20035;-68
2023/11/13 02:52:20;;;;;;;3.97;2.03;;;;;;;;;;5033530;28;20079;-68
2023/11/13 02:54:45;;;;;;;4.05;2.58;;;;;;;;;;5032846;28;20445;-68
2023/11/13 02:57:11;;;;;;;3.35;2.33;;;;;;;;;;5032240;28;20036;-68
2023/11/13 02:59:36;;;;;;;2.92;2.42;;;;;;;;;;5032989;28;20049;-68
2023/11/13 03:02:01;;;;;;;3.85;2.30;;;;;;;;;;5033077;28;20040;-68
2023/11/13 03:04:26;;;;;;;4.65;1.95;;;;;;;;;;5032493;28;20029;-68
2023/11/13 03:06:54;;;;;;;22.85;3.35;;;;;;;;;;5032917;28;20025;-68
2023/11/13 03:09:20;;;;;;;8.38;2.80;;;;;;;;;;5033066;28;20078;-68
2023/11/13 03:11:45;;;;;;;2.55;1.98;;;;;;;;;;5032302;28;20535;-68
2023/11/13 03:14:10;;;;;;;3.15;2.50;;;;;;;;;;5032735;28;20037;-68
2023/11/13 03:16:36;;;;;;;3.72;2.25;;;;;;;;;;5032983;28;20025;-68
2023/11/13 03:19:01;;;;;;;3.30;2.22;;;;;;;;;;5032047;28;20052;-68
2023/11/13 03:21:26;;;;;;;3.42;2.03;;;;;;;;;;5032812;28;20021;-68
2023/11/13 03:23:52;;;;;;;3.45;2.35;;;;;;;;;;5032669;28;20017;-68
2023/11/13 03:26:17;;;;;;;2.85;1.88;;;;;;;;;;5032833;28;20017;-68
2023/11/13 03:28:43;;;;;;;3.08;2.13;;;;;;;;;;5032134;28;20078;-68
2023/11/13 03:31:09;;;;;;;4.13;2.70;;;;;;;;;;5032731;28;20038;-68
2023/11/13 03:33:34;;;;;;;2.72;1.88;;;;;;;;;;5015322;28;20024;-68
2023/11/13 03:36:00;;;;;;;3.95;2.20;;;;;;;;;;5032872;28;20021;-68
2023/11/13 03:38:25;;;;;;;3.85;2.20;;;;;;;;;;5032531;28;20021;-68
2023/11/13 03:40:51;;;;;;;3.53;2.75;;;;;;;;;;5033012;28;20018;-68
2023/11/13 03:43:17;;;;;;;3.47;2.03;;;;;;;;;;5032171;28;20025;-68
2023/11/13 03:45:42;;;;;;;4.30;2.22;;;;;;;;;;5032301;28;20108;-68
2023/11/13 03:48:07;;;;;;;4.78;2.97;;;;;;;;;;5031780;28;20057;-68
2023/11/13 03:50:33;;;;;;;4.10;2.00;;;;;;;;;;5032982;28;20041;-68
2023/11/13 03:52:58;;;;;;;2.40;1.73;;;;;;;;;;5030765;28;20096;-68
2023/11/13 03:55:23;;;;;;;3.42;2.38;;;;;;;;;;5032706;28;20071;-67
2023/11/13 03:57:49;;;;;;;3.00;1.58;;;;;;;;;;5032052;28;20036;-67
2023/11/13 04:00:14;;;;;;;2.05;1.58;;;;;;;;;;5031485;28;20022;-68
2023/11/13 04:02:40;;;;;;;2.70;1.92;;;;;;;;;;5032919;28;20027;-68
2023/11/13 04:05:06;;;;;;;2.58;2.38;;;;;;;;;;5032491;28;20382;-68
2023/11/13 04:07:31;;;;;;;2.58;2.03;;;;;;;;;;5032147;28;20026;-68
2023/11/13 04:09:58;;;;;;;7.28;3.50;;;;;;;;;;5032417;28;20079;-68
2023/11/13 04:12:23;;;;;;;4.93;3.20;;;;;;;;;;5032045;28;20033;-68
2023/11/13 04:14:48;;;;;;;6.75;4.15;;;;;;;;;;5031119;28;20029;-68
2023/11/13 04:17:14;;;;;;;5.25;3.17;;;;;;;;;;5032390;28;20364;-68
2023/11/13 04:19:40;;;;;;;7.07;3.30;;;;;;;;;;5032486;28;20532;-68
2023/11/13 04:22:06;;;;;;;5.20;3.13;;;;;;;;;;5031893;28;20037;-68
2023/11/13 04:24:31;;;;;;;4.65;3.00;;;;;;;;;;5032567;28;20030;-68
2023/11/13 04:26:57;;;;;;;4.22;2.92;;;;;;;;;;5034881;28;20031;-68
2023/11/13 04:29:22;;;;;;;4.80;2.92;;;;;;;;;;5036002;28;20037;-68
2023/11/13 04:31:47;;;;;;;4.57;2.80;;;;;;;;;;5035080;28;20037;-68
2023/11/13 04:34:13;;;;;;;4.00;2.78;;;;;;;;;;5035431;28;20036;-68
2023/11/13 04:36:41;;;;;;;4.43;2.50;;;;;;;;;;5034727;28;20029;-68
2023/11/13 04:39:09;;;;;;;3.60;2.20;;;;;;;;;;5035748;28;20026;-68
2023/11/13 04:41:37;;;;;;;3.75;2.55;;;;;;;;;;5035650;28;20479;-68
2023/11/13 04:44:03;;;;;;;3.90;2.67;;;;;;;;;;5035569;28;20025;-68
2023/11/13 04:46:29;;;;;;;3.05;1.98;;;;;;;;;;5034316;28;20072;-68
2023/11/13 04:48:54;;;;;;;3.25;2.30;;;;;;;;;;5035268;28;20021;-68
2023/11/13 04:51:19;;;;;;;3.83;2.75;;;;;;;;;;5035706;28;20466;-68
2023/11/13 04:53:45;;;;;;;3.92;3.17;;;;;;;;;;5035680;28;20040;-68
2023/11/13 04:56:11;;;;;;;2.97;2.10;;;;;;;;;;5034540;28;20025;-68
2023/11/13 04:58:37;;;;;;;5.22;2.88;;;;;;;;;;5035698;28;20032;-68
2023/11/13 05:01:03;;;;;;;4.70;3.00;;;;;;;;;;5034810;28;20048;-67
2023/11/13 05:03:31;;;;;;;3.35;1.98;;;;;;;;;;5034675;28;20485;-67
2023/11/13 05:05:57;;;;;;;3.70;2.58;;;;;;;;;;5035357;28;20397;-68
2023/11/13 05:08:23;;;;;;;3.97;2.25;;;;;;;;;;5034358;28;20021;-68
2023/11/13 05:10:49;;;;;;;3.95;2.40;;;;;;;;;;5035189;28;20029;-68
2023/11/13 05:13:15;;;;;;;4.40;3.22;;;;;;;;;;5034757;28;20033;-67
2023/11/13 05:15:41;;;;;;;4.53;2.90;;;;;;;;;;5035260;28;20125;-68
2023/11/13 05:18:07;;;;;;;4.28;2.95;;;;;;;;;;5033988;28;20053;-68
2023/11/13 05:20:39;;;;;;;6.00;3.28;;;;;;;;;;5035110;28;20044;-68
2023/11/13 05:23:04;;;;;;;9.98;4.10;;;;;;;;;;5033921;28;20108;-68
2023/11/13 05:25:30;;;;;;;11.07;5.55;;;;;;;;;;5034161;28;20112;-68
2023/11/13 05:27:55;;;;;;;17.42;8.13;;;;;;;;;;5035228;28;20029;-68
2023/11/13 05:30:20;;;;;;;25.05;10.20;;;;;;;;;;5034629;28;20029;-68
2023/11/13 05:32:46;;;;;;;29.95;12.32;;;;;;;;;;5034066;28;20052;-68
2023/11/13 05:35:11;;;;;;;31.40;12.20;;;;;;;;;;5034310;28;20386;-68
2023/11/13 05:37:36;;;;;;;37.85;14.38;;;;;;;;;;5033849;28;20471;-68
2023/11/13 05:40:02;;;;;;;39.80;15.93;;;;;;;;;;5034728;28;20372;-68
2023/11/13 05:42:27;;;;;;;43.50;15.32;;;;;;;;;;5035199;28;20025;-68
2023/11/13 05:44:54;;;;;;;40.25;16.25;;;;;;;;;;5035174;28;20022;-68
2023/11/13 05:47:19;;;;;;;44.78;17.83;;;;;;;;;;5034596;28;20041;-68
2023/11/13 05:49:44;;;;;;;43.15;14.68;;;;;;;;;;5034878;28;20029;-68
2023/11/13 05:52:10;;;;;;;42.67;15.52;;;;;;;;;;5034801;28;20057;-68
2023/11/13 05:54:37;;;;;;;40.92;16.08;;;;;;;;;;5035092;28;20017;-68
2023/11/13 05:57:02;;;;;;;50.83;19.10;;;;;;;;;;5033259;28;20060;-68
2023/11/13 05:59:28;;;;;;;49.42;18.60;;;;;;;;;;5035464;28;20057;-68
2023/11/13 06:01:54;;;;;;;49.35;16.50;;;;;;;;;;5033741;28;20087;-67
2023/11/13 06:04:19;;;;;;;49.13;16.48;;;;;;;;;;5035367;28;20032;-68
2023/11/13 06:06:45;;;;;;;47.83;16.75;;;;;;;;;;5034952;28;20051;-68
2023/11/13 06:09:11;;;;;;;55.47;19.38;;;;;;;;;;5034516;28;20026;-68
2023/11/13 06:11:37;;;;;;;49.78;18.73;;;;;;;;;;5035119;28;20470;-68
2023/11/13 06:14:05;;;;;;;50.30;18.17;;;;;;;;;;5035731;28;20561;-68
2023/11/13 06:16:32;;;;;;;57.05;19.98;;;;;;;;;;5034632;28;20029;-68
2023/11/13 06:18:59;;;;;;;54.85;18.70;;;;;;;;;;5034400;28;20045;-68
2023/11/13 06:21:24;;;;;;;48.80;19.13;;;;;;;;;;5033240;28;20025;-68
2023/11/13 06:23:50;;;;;;;51.28;20.02;;;;;;;;;;5034434;28;20033;-68
2023/11/13 06:26:15;;;;;;;60.95;20.92;;;;;;;;;;5033710;28;20049;-68
2023/11/13 06:28:41;;;;;;;62.75;22.42;;;;;;;;;;5034074;28;20032;-68
2023/11/13 06:31:08;;;;;;;53.40;21.45;;;;;;;;;;5033067;28;20033;-68
2023/11/13 06:33:36;;;;;;;57.90;21.63;;;;;;;;;;5033952;28;20099;-68
2023/11/13 06:36:03;;;;;;;58.03;20.98;;;;;;;;;;5032469;28;20100;-68
2023/11/13 06:38:28;;;;;;;58.33;21.50;;;;;;;;;;5033894;28;20052;-68
2023/11/13 06:40:53;;;;;;;57.08;20.88;;;;;;;;;;5034717;28;20079;-68
2023/11/13 06:43:19;;;;;;;59.08;22.08;;;;;;;;;;5033723;28;20116;-68
2023/11/13 06:45:44;;;;;;;63.25;21.55;;;;;;;;;;5034032;28;20035;-68
2023/11/13 06:48:10;;;;;;;61.53;21.50;;;;;;;;;;5034233;28;20545;-68
2023/11/13 06:50:38;;;;;;;60.53;21.73;;;;;;;;;;5033299;28;20083;-68
2023/11/13 06:53:03;;;;;;;55.60;20.00;;;;;;;;;;5033718;28;20487;-68
2023/11/13 06:55:28;;;;;;;54.38;20.90;;;;;;;;;;5034185;28;20072;-68
2023/11/13 06:57:54;;;;;;;64.82;20.13;;;;;;;;;;5034009;28;20028;-68
2023/11/13 07:00:21;;;;;;;65.70;20.70;;;;;;;;;;5033827;28;20544;-68
2023/11/13 07:02:49;;;;;;;68.03;20.77;;;;;;;;;;5033219;28;20028;-68
2023/11/13 07:05:15;;;;;;;65.43;21.13;;;;;;;;;;5033363;28;20540;-68
2023/11/13 07:07:41;;;;;;;61.58;23.50;;;;;;;;;;5030488;28;20033;-68
2023/11/13 07:10:12;;;;;;;56.08;19.38;;;;;;;;;;5032924;28;20025;-68
2023/11/13 07:12:38;;;;;;;;;;;;;;;;;;5032659;28;20039;-68
2023/11/13 07:15:03;;;;;;;53.92;19.85;;;;;;;;;;5033197;28;20285;-68
2023/11/13 07:17:29;;;;;;;57.58;19.73;;;;;;;;;;5032716;28;20052;-68
2023/11/13 07:19:54;;;;;;;55.50;19.73;;;;;;;;;;5033305;28;20146;-68
2023/11/13 07:22:19;;;;;;;50.35;18.77;;;;;;;;;;5033074;28;20127;-68
2023/11/13 07:24:46;;;;;;;55.63;18.67;;;;;;;;;;5032915;28;20021;-68
2023/11/13 07:27:12;;;;;;;53.17;19.17;;;;;;;;;;5033411;28;20101;-68
2023/11/13 07:29:37;;;;;;;48.10;18.90;;;;;;;;;;5032613;28;20104;-68
2023/11/13 07:32:03;;;;;;;58.50;20.40;;;;;;;;;;5033199;28;20554;-67
2023/11/13 07:34:28;;;;;;;46.53;16.52;;;;;;;;;;5032872;28;20013;-68
2023/11/13 07:36:53;;;;;;;49.15;19.23;;;;;;;;;;5033435;28;20027;-68
2023/11/13 07:39:19;;;;;;;54.15;18.15;;;;;;;;;;5032803;28;20033;-68
2023/11/13 07:41:44;;;;;;;47.83;17.35;;;;;;;;;;5031558;28;20045;-68
2023/11/13 07:44:09;;;;;;;49.50;17.40;;;;;;;;;;5032785;28;20029;-68
2023/11/13 07:46:35;;;;;;;47.67;17.33;;;;;;;;;;5032364;28;20024;-68
2023/11/13 07:49:00;;;;;;;50.72;17.67;;;;;;;;;;5032976;28;20489;-67
2023/11/13 07:51:26;;;;;;;49.97;17.52;;;;;;;;;;5032297;28;20025;-68
2023/11/13 07:53:51;;;;;;;47.47;19.50;;;;;;;;;;5032821;28;20029;-68
2023/11/13 07:56:19;;;;;;;47.67;17.05;;;;;;;;;;5031740;28;20498;-67
2023/11/13 07:58:45;;;;;;;43.75;16.52;;;;;;;;;;5032969;28;20084;-68
2023/11/13 08:01:10;;;;;;;41.00;15.27;;;;;;;;;;5035849;28;20552;-67
2023/11/13 08:03:35;;;;;;;45.10;15.98;;;;;;;;;;5037270;28;20056;-68
2023/11/13 08:06:01;;;;;;;45.80;17.60;;;;;;;;;;5036324;28;20017;-68
2023/11/13 08:08:26;;;;;;;40.55;16.58;;;;;;;;;;5036689;28;20025;-67
2023/11/13 08:10:53;;;;;;;39.47;14.85;;;;;;;;;;5036380;28;20021;-68
2023/11/13 08:13:19;;;;;;;39.50;14.00;;;;;;;;;;5036382;28;20152;-67
2023/11/13 08:15:44;;;;;;;41.28;15.32;;;;;;;;;;5035136;28;20065;-68
2023/11/13 08:18:14;;;;;;;37.58;15.13;;;;;;;;;;5036513;28;20552;-68
2023/11/13 08:20:42;;;;;;;45.80;16.50;;;;;;;;;;5035569;28;20104;-68
2023/11/13 08:23:10;;;;;;;45.08;16.15;;;;;;;;;;5036699;28;20390;-68
2023/11/13 08:25:37;;;;;;;49.13;16.85;;;;;;;;;;5036221;28;20041;-68
2023/11/13 08:28:02;;;;;;;43.38;15.90;;;;;;;;;;5036298;28;20048;-68
2023/11/13 08:30:28;;;;;;;51.20;17.65;;;;;;;;;;5036278;28;20068;-68
2023/11/13 08:32:54;;;;;;;45.05;17.15;;;;;;;;;;5036077;28;20394;-68
2023/11/13 08:35:19;;;;;;;46.25;17.30;;;;;;;;;;5034704;28;20041;-68
2023/11/13 08:37:45;;;;;;;51.08;17.13;;;;;;;;;;5035994;28;20026;-68
2023/11/13 08:40:13;;;;;;;45.33;16.05;;;;;;;;;;5035899;28;20108;-68
2023/11/13 08:42:41;;;;;;;44.95;16.90;;;;;;;;;;5034944;28;20025;-68
2023/11/13 08:45:12;;;;;;;49.05;16.60;;;;;;;;;;5035595;28;20025;-68
2023/11/13 08:47:38;;;;;;;45.75;17.55;;;;;;;;;;5036045;28;20418;-68
2023/11/13 08:50:07;;;;;;;59.47;18.65;;;;;;;;;;5035999;28;20490;-68
2023/11/13 08:52:32;;;;;;;51.45;16.45;;;;;;;;;;5035940;28;20028;-68
2023/11/13 08:54:57;;;;;;;50.83;17.55;;;;;;;;;;5036058;28;20026;-68
2023/11/13 08:57:23;;;;;;;58.90;19.00;;;;;;;;;;5035582;28;20081;-68
2023/11/13 08:59:48;;;;;;;56.55;18.58;;;;;;;;;;5035575;28;20521;-68
2023/11/13 09:02:14;;;;;;;46.30;16.92;;;;;;;;;;5034793;28;20068;-68
2023/11/13 09:04:40;;;;;;;47.33;17.15;;;;;;;;;;5034293;28;20030;-68
2023/11/13 09:07:07;;;;;;;44.17;16.25;;;;;;;;;;5035971;28;20471;-68
2023/11/13 09:09:36;;;;;;;43.10;15.45;;;;;;;;;;5034877;28;20018;-68
2023/11/13 09:12:04;;;;;;;37.05;15.80;;;;;;;;;;5035083;28;20445;-67
2023/11/13 09:14:30;;;;;;;50.42;17.15;;;;;;;;;;5033971;28;20034;-67
2023/11/13 09:16:55;;;;;;;45.65;15.15;;;;;;;;;;5035563;28;20108;-68
2023/11/13 09:19:20;;;;;;;43.50;16.77;;;;;;;;;;5035274;28;20546;-67
2023/11/13 09:21:46;;;;;;;43.85;16.25;;;;;;;;;;5034742;28;20029;-68
2023/11/13 09:24:13;;;;;;;48.33;16.75;;;;;;;;;;5035498;28;20029;-68
2023/11/13 09:26:39;;;;;;;46.17;17.27;;;;;;;;;;5034042;28;20041;-67
2023/11/13 09:29:04;;;;;;;47.92;16.67;;;;;;;;;;5034677;28;20068;-68
2023/11/13 09:31:30;;;;;;;45.22;16.50;;;;;;;;;;5035235;28;20408;-68
2023/11/13 09:33:55;;;;;;;49.30;16.02;;;;;;;;;;5035332;28;20036;-68
2023/11/13 09:36:21;;;;;;;43.67;17.27;;;;;;;;;;5035927;28;20079;-68
2023/11/13 09:38:51;;;;;;;44.13;15.93;;;;;;;;;;5035098;28;20029;-68
2023/11/13 09:41:21;;;;;;;47.30;18.55;;;;;;;;;;5034965;28;20024;-68
2023/11/13 09:43:47;;;;;;;43.95;16.05;;;;;;;;;;5033200;28;20025;-68
2023/11/13 09:46:12;;;;;;;44.30;16.48;;;;;;;;;;5034759;28;20028;-68
2023/11/13 09:48:51;;;;;;;50.05;16.42;;;;;;;;;;5035296;28;20386;-68
2023/11/13 09:51:24;;;;;;;40.53;15.02;;;;;;;;;;5034894;28;20475;-68
2023/11/13 09:53:50;;;;;;;40.72;15.43;;;;;;;;;;5032887;28;20034;-68
2023/11/13 09:56:16;;;;;;;47.92;16.10;;;;;;;;;;5033797;28;20025;-68
2023/11/13 09:58:43;;;;;;;44.50;14.70;;;;;;;;;;5034717;28;20037;-68
2023/11/13 10:01:10;;;;;;;37.42;13.52;;;;;;;;;;5034412;28;20079;-68
2023/11/13 10:03:36;;;;;;;40.08;16.23;;;;;;;;;;5035490;28;20036;-68
2023/11/13 10:06:06;;;;;;;41.90;15.40;;;;;;;;;;5034458;28;20033;-68
2023/11/13 10:08:31;;;;;;;37.88;14.05;;;;;;;;;;5035360;28;20049;-68
2023/11/13 10:10:56;;;;;;;34.95;13.63;;;;;;;;;;5033734;28;20098;-67
2023/11/13 10:13:23;;;;;;;40.70;15.20;;;;;;;;;;5033911;28;20422;-68
2023/11/13 10:15:48;;;;;;;35.88;14.02;;;;;;;;;;5033700;28;20029;-68
2023/11/13 10:18:14;;;;;;;39.30;13.77;;;;;;;;;;5033732;28;20024;-68
2023/11/13 10:20:45;;;;;;;34.15;13.68;;;;;;;;;;5033056;28;20033;-68
2023/11/13 10:23:13;;;;;;;40.00;15.82;;;;;;;;;;5033748;28;20483;-68
2023/11/13 10:25:56;;;;;;;41.95;15.50;;;;;;;;;;5033627;28;20034;-68
2023/11/13 10:28:33;;;;;;;43.65;14.68;;;;;;;;;;5033450;28;20028;-68
2023/11/13 10:31:00;;;;;;;42.08;14.85;;;;;;;;;;5032917;28;20025;-68
2023/11/13 10:33:28;;;;;;;43.00;16.23;;;;;;;;;;5034301;28;20101;-68
2023/11/13 10:36:04;;;;;;;44.15;15.85;;;;;;;;;;5033744;28;20114;-68
2023/11/13 10:38:43;;;;;;;44.30;15.18;;;;;;;;;;5032850;28;20027;-68
2023/11/13 10:41:10;;;;;;;49.83;17.08;;;;;;;;;;5028874;28;20018;-68
2023/11/13 10:43:43;;;;;;;48.20;15.63;;;;;;;;;;5033622;28;20026;-68
2023/11/13 10:46:09;;;;;;;49.75;16.80;;;;;;;;;;5033849;28;20036;-69
2023/11/13 10:48:49;;;;;;;52.03;17.25;;;;;;;;;;5033533;28;20022;-68
2023/11/13 10:51:15;;;;;;;46.72;16.48;;;;;;;;;;5032601;28;20506;-68
2023/11/13 10:53:42;;;;;;;49.88;16.40;;;;;;;;;;5034096;28;20037;-69
2023/11/13 10:56:12;;;;;;;49.80;17.45;;;;;;;;;;5028494;28;20029;-68
2023/11/13 10:58:37;;;;;;;48.00;17.15;;;;;;;;;;5012232;28;20542;-68
2023/11/13 11:01:13;;;;;;;52.70;18.08;;;;;;;;;;5012923;28;20037;-68
2023/11/13 11:03:45;;;;;;;58.97;20.35;;;;;;;;;;5013770;28;20390;-69
2023/11/13 11:06:14;;;;;;;64.25;20.75;;;;;;;;;;5012711;28;20030;-68
2023/11/13 11:08:40;;;;;;;55.83;20.65;;;;;;;;;;5015210;28;20037;-68
2023/11/13 11:11:08;;;;;;;46.92;18.60;;;;;;;;;;5031787;28;20030;-68
2023/11/13 11:13:36;;;;;;;57.08;19.23;;;;;;;;;;5032160;28;20056;-68
2023/11/13 11:16:21;;;;;;;45.72;17.63;;;;;;;;;;5032247;28;20073;-68
2023/11/13 11:18:57;;;;;;;54.63;19.75;;;;;;;;;;5032268;28;20026;-68
2023/11/13 11:22:05;;;;;;;47.45;17.77;;;;;;;;;;5031358;28;20467;-68
2023/11/13 11:24:49;;;;;;;46.50;18.55;;;;;;;;;;5012961;28;20056;-68
2023/11/13 11:27:36;;;;;;;53.95;18.75;;;;;;;;;;5033073;28;20022;-68
2023/11/13 11:30:22;;;;;;;61.85;18.73;;;;;;;;;;5033279;28;20024;-68
2023/11/13 11:33:01;;;;;;;47.30;16.75;;;;;;;;;;5032382;28;20119;-68
2023/11/13 11:35:31;;;;;;;49.42;17.80;;;;;;;;;;5033819;28;20024;-68
2023/11/13 11:38:28;;;;;;;51.28;17.33;;;;;;;;;;5037459;28;20501;-68
2023/11/13 11:40:55;;;;;;;46.63;15.82;;;;;;;;;;5032096;28;20041;-68
2023/11/13 11:43:22;;;;;;;42.00;16.25;;;;;;;;;;5016902;28;20530;-66
2023/11/13 11:45:51;;;;;;;43.80;17.15;;;;;;;;;;5017451;28;20387;-65
2023/11/13 11:48:19;;;;;;;53.42;18.80;;;;;;;;;;5016375;28;20025;-66
2023/11/13 11:50:45;;;;;;;41.15;16.58;;;;;;;;;;5019081;28;20025;-66
2023/11/13 11:53:16;;;;;;;43.70;16.73;;;;;;;;;;5033903;28;20159;-66
2023/11/13 11:55:42;;;;;;;45.97;17.17;;;;;;;;;;5035987;28;20044;-66
2023/11/13 11:58:10;;;;;;;42.10;18.02;;;;;;;;;;5036620;28;20021;-66
2023/11/13 12:00:36;;;;;;;42.75;15.95;;;;;;;;;;5035175;28;20029;-66
2023/11/13 12:03:01;;;;;;;45.60;16.40;;;;;;;;;;5036217;28;20044;-66
2023/11/13 12:05:26;;;;;;;48.40;16.48;;;;;;;;;;5036609;28;20116;-66
2023/11/13 12:07:52;;;;;;;37.22;13.65;;;;;;;;;;5018385;28;20021;-66
2023/11/13 12:10:21;;;;;;;30.15;12.48;;;;;;;;;;5035814;28;20107;-66
2023/11/13 12:12:47;;;;;;;35.10;13.93;;;;;;;;;;5036665;28;20037;-66
2023/11/13 12:15:14;;;;;;;33.75;13.70;;;;;;;;;;5036224;28;20112;-66
2023/11/13 12:17:40;;;;;;;30.48;13.00;;;;;;;;;;5036082;28;20029;-66
2023/11/13 12:20:08;;;;;;;31.42;11.25;;;;;;;;;;5035422;28;20116;-66
2023/11/13 12:22:34;;;;;;;29.55;10.65;;;;;;;;;;5036890;28;20437;-68
2023/11/13 12:25:04;;;;;;;29.05;11.38;;;;;;;;;;5037108;28;20021;-68
2023/11/13 12:27:30;;;;;;;24.70;11.02;;;;;;;;;;5036511;28;20097;-68
2023/11/13 12:30:05;;;;;;;27.50;10.50;;;;;;;;;;5034713;28;20025;-68
2023/11/13 12:32:32;;;;;;;30.95;11.20;;;;;;;;;;5035535;28;20036;-68
2023/11/13 12:34:57;;;;;;;22.25;9.32;;;;;;;;;;5035451;28;20021;-68
2023/11/13 12:37:24;;;;;;;18.95;8.43;;;;;;;;;;5035237;28;20032;-68
2023/11/13 12:39:50;;;;;;;23.67;9.57;;;;;;;;;;5036294;28;20103;-68
2023/11/13 12:42:16;;;;;;;19.70;8.48;;;;;;;;;;5030593;28;20033;-68
2023/11/13 12:44:42;;;;;;;19.90;8.60;;;;;;;;;;5016579;28;20030;-68
2023/11/13 12:47:08;;;;;;;18.92;7.90;;;;;;;;;;5015693;28;20391;-68
2023/11/13 12:49:35;;;;;;;28.38;9.10;;;;;;;;;;5016295;28;20033;-68
2023/11/13 12:52:01;;;;;;;14.57;7.75;;;;;;;;;;5016137;28;20568;-68
2023/11/13 12:54:26;;;;;;;14.70;7.82;;;;;;;;;;5016443;28;20108;-68
2023/11/13 12:56:52;;;;;;;15.88;8.07;;;;;;;;;;5019906;28;20022;-68
2023/11/13 12:59:20;;;;;;;22.23;6.82;;;;;;;;;;5033702;28;20029;-68
2023/11/13 13:01:46;;;;;;;15.32;8.10;;;;;;;;;;5035496;28;20029;-68
2023/11/13 13:04:15;;;;;;;16.98;8.70;;;;;;;;;;5035853;28;20036;-68
2023/11/13 13:06:41;;;;;;;14.55;7.85;;;;;;;;;;5033848;28;20049;-68
2023/11/13 13:09:07;;;;;;;15.70;7.60;;;;;;;;;;5034864;28;20502;-66
2023/11/13 13:11:34;;;;;;;14.73;7.35;;;;;;;;;;5033307;28;20026;-66
2023/11/13 13:14:01;;;;;;;12.82;6.88;;;;;;;;;;5017420;28;20033;-66
2023/11/13 13:16:27;;;;;;;17.00;6.57;;;;;;;;;;5029079;28;20045;-65
2023/11/13 13:18:52;;;;;;;14.13;6.22;;;;;;;;;;5032048;28;20046;-66
2023/11/13 13:21:21;;;;;;;14.18;5.65;;;;;;;;;;5033902;28;20039;-65
2023/11/13 13:23:47;;;;;;;12.98;6.15;;;;;;;;;;5034920;28;20097;-65
2023/11/13 13:26:12;;;;;;;12.98;5.40;;;;;;;;;;5034690;28;20108;-65
2023/11/13 13:28:40;;;;;;;14.15;5.90;;;;;;;;;;5035301;28;20022;-65
2023/11/13 13:31:06;;;;;;;13.73;5.93;;;;;;;;;;5034730;28;20021;-66
2023/11/13 13:33:31;;;;;;;11.55;4.75;;;;;;;;;;5033401;28;20561;-65
2023/11/13 13:35:58;;;;;;;11.95;5.18;;;;;;;;;;5035019;28;20029;-65
2023/11/13 13:38:25;;;;;;;15.55;5.97;;;;;;;;;;5033037;28;20562;-65
2023/11/13 13:40:50;;;;;;;12.60;5.50;;;;;;;;;;5033811;28;20039;-65
2023/11/13 13:43:16;;;;;;;10.05;4.22;;;;;;;;;;5034581;28;20021;-66
2023/11/13 13:45:42;;;;;;;11.65;5.68;;;;;;;;;;5034658;28;20025;-66
2023/11/13 13:48:09;;;;;;;10.05;5.10;;;;;;;;;;5034898;28;20029;-65
2023/11/13 13:50:34;;;;;;;10.48;5.40;;;;;;;;;;5033471;28;20029;-66
2023/11/13 13:53:02;;;;;;;10.57;5.85;;;;;;;;;;5034609;28;20025;-66
2023/11/13 13:55:32;;;;;;;14.15;4.93;;;;;;;;;;5035371;28;20096;-66
2023/11/13 13:58:01;;;;;;;9.52;4.90;;;;;;;;;;5032416;28;20060;-65
2023/11/13 14:00:32;;;;;;;16.25;5.00;;;;;;;;;;5035200;28;20025;-66
2023/11/13 14:03:01;;;;;;;10.75;4.65;;;;;;;;;;5034180;28;20014;-65
2023/11/13 14:05:27;;;;;;;8.00;3.72;;;;;;;;;;5034387;28;20503;-65
2023/11/13 14:07:52;;;;;;;10.90;4.30;;;;;;;;;;5033036;28;20025;-68
2023/11/13 14:10:18;;;;;;;7.50;4.05;;;;;;;;;;5031108;28;20025;-66
2023/11/13 14:12:43;;;;;;;7.63;3.80;;;;;;;;;;5034040;28;20059;-66
2023/11/13 14:15:10;;;;;;;7.55;3.38;;;;;;;;;;5031050;28;20067;-66
2023/11/13 14:17:40;;;;;;;9.43;4.15;;;;;;;;;;5032430;28;20100;-66
2023/11/13 14:20:16;;;;;;;8.45;3.40;;;;;;;;;;5027994;28;20160;-66
2023/11/13 14:22:48;;;;;;;6.53;3.47;;;;;;;;;;5031593;28;20021;-66
2023/11/13 14:25:17;;;;;;;7.90;4.05;;;;;;;;;;5024352;28;20112;-65
2023/11/13 14:27:50;;;;;;;6.68;3.55;;;;;;;;;;5031947;28;20448;-66